Terminal Aerodrome Forecast
Issued by NWS

Home | Current Version | Previous Version | Text Only | Print | Product List | Glossary Off
Versions: 1 2 3 4 5 6 7 8 9 10 11 12 13

000
FTUS43 KOAX 181100
TAFCDR
TAF
KCDR 181137Z 1812/1912 VRB04KT P6SM SKC
     FM181400 18010KT P6SM SCT250
     FM190600 VRB05KT P6SM BKN200=

USA.gov is the U.S. government's official web portal to all federal, state and local government web resources and services.